createdAt,value
2023-02-03T00:00:28.766Z,62.28
2023-02-03T00:03:11.769Z,62.04
2023-02-03T00:05:55.503Z,61.98
2023-02-03T00:08:39.952Z,61.97
2023-02-03T00:11:23.046Z,62.14
2023-02-03T00:14:08.043Z,62.07
2023-02-03T00:16:51.221Z,62.03
2023-02-03T00:19:34.209Z,62.18
2023-02-03T00:22:17.107Z,62.08
2023-02-03T00:25:01.396Z,61.92
2023-02-03T00:27:44.726Z,61.95
2023-02-03T00:30:28.090Z,61.87
2023-02-03T00:33:11.168Z,61.91
2023-02-03T00:35:54.108Z,61.93
2023-02-03T00:38:37.028Z,61.87
2023-02-03T00:41:22.518Z,62.01
2023-02-03T00:44:05.700Z,62.09
2023-02-03T00:46:48.652Z,62.27
2023-02-03T00:49:31.651Z,62.02
2023-02-03T00:52:14.567Z,61.93
2023-02-03T00:54:57.599Z,61.84
2023-02-03T00:57:41.907Z,62.07
2023-02-03T01:00:26.829Z,61.98
2023-02-03T01:03:11.576Z,62.29
2023-02-03T01:05:54.466Z,61.92
2023-02-03T01:08:37.376Z,62.13
2023-02-03T01:11:23.451Z,62.20
2023-02-03T01:14:07.786Z,62.07
2023-02-03T01:16:52.413Z,62.26
2023-02-03T01:19:35.430Z,62.17
2023-02-03T01:22:18.399Z,62.10
2023-02-03T01:25:01.269Z,62.17
2023-02-03T01:27:44.278Z,62.25
2023-02-03T01:30:29.064Z,62.03
2023-02-03T01:33:12.165Z,62.14
2023-02-03T01:35:55.137Z,62.07
2023-02-03T01:38:38.977Z,62.28
2023-02-03T01:41:23.978Z,62.13
2023-02-03T01:44:40.118Z,62.22
2023-02-03T01:47:32.489Z,62.04
2023-02-03T01:50:20.301Z,62.12
2023-02-03T01:53:07.865Z,62.02
2023-02-03T01:55:51.714Z,62.21
2023-02-03T01:58:39.117Z,62.09
2023-02-03T02:01:22.086Z,62.16
2023-02-03T02:04:07.279Z,62.07
2023-02-03T02:06:51.790Z,62.18
2023-02-03T02:09:35.339Z,62.14
2023-02-03T02:12:18.425Z,62.07
2023-02-03T02:15:01.554Z,61.85
2023-02-03T02:17:55.253Z,62.09
2023-02-03T02:21:17.491Z,62.13
2023-02-03T02:24:32.379Z,62.07
2023-02-03T02:27:27.609Z,62.26
2023-02-03T02:30:40.294Z,62.20
2023-02-03T02:33:37.619Z,61.97
2023-02-03T02:36:34.294Z,61.90
2023-02-03T02:39:24.198Z,62.05
2023-02-03T02:42:12.353Z,62.15
2023-02-03T02:45:00.411Z,62.22
2023-02-03T02:47:45.184Z,61.95
2023-02-03T02:50:35.540Z,62.05
2023-02-03T02:53:22.450Z,61.85
2023-02-03T02:56:11.680Z,62.11
2023-02-03T02:58:57.033Z,62.05
2023-02-03T03:01:41.258Z,62.12
2023-02-03T03:04:28.463Z,62.00
2023-02-03T03:07:17.733Z,61.99
2023-02-03T03:10:03.934Z,62.05
2023-02-03T03:12:51.642Z,62.28
2023-02-03T03:15:37.114Z,62.13
2023-02-03T03:18:25.582Z,62.09
2023-02-03T03:21:11.137Z,62.20
2023-02-03T03:24:00.448Z,62.29
2023-02-03T03:26:49.006Z,62.24
2023-02-03T03:29:37.149Z,62.09
2023-02-03T03:32:20.047Z,62.09
2023-02-03T03:35:04.017Z,62.26
2023-02-03T03:37:52.255Z,62.18
2023-02-03T03:40:41.531Z,62.38
2023-02-03T03:43:29.206Z,62.41
2023-02-03T03:46:16.034Z,62.78
2023-02-03T03:49:03.218Z,62.47
2023-02-03T03:51:50.417Z,62.17
2023-02-03T03:54:34.888Z,62.51
2023-02-03T03:57:24.759Z,62.63
2023-02-03T04:00:10.723Z,62.58
2023-02-03T04:03:01.162Z,62.62
2023-02-03T04:05:44.434Z,62.36
2023-02-03T04:08:27.313Z,62.68
2023-02-03T04:11:10.204Z,62.48
2023-02-03T04:13:54.355Z,62.85
2023-02-03T04:16:37.124Z,62.61
2023-02-03T04:19:20.137Z,62.68
2023-02-03T04:22:02.909Z,62.74
2023-02-03T04:24:45.689Z,62.64
2023-02-03T04:27:28.614Z,62.78
2023-02-03T04:30:14.507Z,62.59
2023-02-03T04:32:57.328Z,62.99
2023-02-03T04:35:40.155Z,62.76
2023-02-03T04:38:23.008Z,62.76
2023-02-03T04:41:06.049Z,62.57
2023-02-03T04:43:49.328Z,62.66
2023-02-03T04:46:33.848Z,63.00
2023-02-03T04:49:17.700Z,63.58
2023-02-03T04:52:00.550Z,63.26
2023-02-03T04:54:43.391Z,63.31
2023-02-03T04:57:26.319Z,64.13
2023-02-03T05:00:10.721Z,64.28
2023-02-03T05:02:54.974Z,63.74
2023-02-03T05:05:37.866Z,63.77
2023-02-03T05:08:20.655Z,63.89
2023-02-03T05:11:04.717Z,63.87
2023-02-03T05:13:48.647Z,64.09
2023-02-03T05:16:31.567Z,64.44
2023-02-03T05:19:15.875Z,64.28
2023-02-03T05:21:58.638Z,64.81
2023-02-03T05:24:41.455Z,65.00
2023-02-03T05:27:24.336Z,64.41
2023-02-03T05:30:08.266Z,64.51
2023-02-03T05:32:51.171Z,64.85
2023-02-03T05:35:35.372Z,65.00
2023-02-03T05:38:18.346Z,65.88
2023-02-03T05:41:18.821Z,65.38
2023-02-03T05:44:01.700Z,65.72
2023-02-03T05:46:44.512Z,65.45
2023-02-03T05:49:27.587Z,65.15
2023-02-03T05:52:11.943Z,65.72
2023-02-03T05:54:54.951Z,66.04
2023-02-03T05:57:37.744Z,65.69
2023-02-03T06:00:22.394Z,65.70
2023-02-03T06:03:05.381Z,68.41
2023-02-03T06:05:48.208Z,67.16
2023-02-03T06:08:32.514Z,66.39
2023-02-03T06:11:15.392Z,66.74
2023-02-03T06:13:59.507Z,66.09
2023-02-03T06:16:42.392Z,66.47
2023-02-03T06:19:25.281Z,67.24
2023-02-03T06:22:08.084Z,67.07
2023-02-03T06:24:52.215Z,66.81
2023-02-03T06:27:35.114Z,66.71
2023-02-03T06:30:20.321Z,67.06
2023-02-03T06:33:03.161Z,67.24
2023-02-03T06:35:46.108Z,66.51
2023-02-03T06:38:28.912Z,66.97
2023-02-03T06:41:13.093Z,67.22
2023-02-03T06:43:55.881Z,67.59
2023-02-03T06:46:38.856Z,68.17
2023-02-03T06:49:21.631Z,67.75
2023-02-03T06:52:04.652Z,67.33
2023-02-03T06:54:47.446Z,67.07
2023-02-03T06:57:31.631Z,66.69
2023-02-03T07:00:18.570Z,67.14
2023-02-03T07:03:02.370Z,66.97
2023-02-03T07:05:45.303Z,66.90
2023-02-03T07:08:28.119Z,67.30
2023-02-03T07:11:11.142Z,66.77
2023-02-03T07:13:55.361Z,66.45
2023-02-03T07:16:38.159Z,66.64
2023-02-03T07:19:21.007Z,66.28
2023-02-03T07:22:03.810Z,66.77
2023-02-03T07:24:46.616Z,66.34
2023-02-03T07:27:29.769Z,66.56
2023-02-03T07:30:15.151Z,66.59
2023-02-03T07:32:57.947Z,66.20
2023-02-03T07:35:40.706Z,66.60
2023-02-03T07:38:24.736Z,66.11
2023-02-03T07:41:08.383Z,66.26
2023-02-03T07:43:51.226Z,66.20
2023-02-03T07:46:35.469Z,66.51
2023-02-03T07:49:18.319Z,66.89
2023-02-03T07:52:01.125Z,66.19
2023-02-03T07:54:44.036Z,66.42
2023-02-03T07:57:27.471Z,66.33
2023-02-03T08:00:12.057Z,66.35
2023-02-03T08:02:58.901Z,66.23
2023-02-03T08:05:41.761Z,65.86
2023-02-03T08:08:24.580Z,65.65
2023-02-03T08:11:07.423Z,65.75
2023-02-03T08:13:50.275Z,65.57
2023-02-03T08:16:33.190Z,65.63
2023-02-03T08:19:17.466Z,65.33
2023-02-03T08:22:00.302Z,65.94
2023-02-03T08:24:45.704Z,65.52
2023-02-03T08:27:28.534Z,65.33
2023-02-03T08:30:14.361Z,66.06
2023-02-03T08:32:57.192Z,66.02
2023-02-03T08:35:41.436Z,66.56
2023-02-03T08:38:24.243Z,66.39
2023-02-03T08:41:10.607Z,65.98
2023-02-03T08:43:54.138Z,65.88
2023-02-03T08:46:37.565Z,66.62
2023-02-03T08:49:21.157Z,66.20
2023-02-03T08:52:06.156Z,66.03
2023-02-03T08:54:49.613Z,66.24
2023-02-03T08:57:34.047Z,66.59
2023-02-03T09:00:17.760Z,66.86
2023-02-03T09:03:00.596Z,66.11
2023-02-03T09:05:43.356Z,66.63
2023-02-03T09:08:27.619Z,66.26
2023-02-03T09:11:11.228Z,65.99
2023-02-03T09:13:54.050Z,65.85
2023-02-03T09:16:36.970Z,65.91
2023-02-03T09:19:20.012Z,65.68
2023-02-03T09:22:03.114Z,65.57
2023-02-03T09:24:48.659Z,65.68
2023-02-03T09:27:31.466Z,65.18
2023-02-03T09:30:15.077Z,65.28
2023-02-03T09:32:58.943Z,65.56
2023-02-03T09:35:42.020Z,65.64
2023-02-03T09:38:25.542Z,65.57
2023-02-03T09:41:22.956Z,65.49
2023-02-03T09:44:13.862Z,65.42
2023-02-03T09:47:00.996Z,64.96
2023-02-03T09:49:47.196Z,65.09
2023-02-03T09:52:33.611Z,64.93
2023-02-03T09:55:27.693Z,65.19
2023-02-03T09:58:13.904Z,65.44
2023-02-03T10:01:00.132Z,65.09
2023-02-03T10:03:49.037Z,64.96
2023-02-03T10:06:37.186Z,65.08
2023-02-03T10:09:29.463Z,65.33
2023-02-03T10:12:46.652Z,65.06
2023-02-03T10:15:45.162Z,65.08
2023-02-03T10:18:33.195Z,64.91
2023-02-03T10:21:25.067Z,64.99
2023-02-03T10:24:13.815Z,65.43
2023-02-03T10:26:56.835Z,65.12
2023-02-03T10:29:43.940Z,65.20
2023-02-03T10:32:28.902Z,64.97
2023-02-03T10:35:13.678Z,64.81
2023-02-03T10:37:59.809Z,64.82
2023-02-03T10:40:42.657Z,64.76
2023-02-03T10:43:43.200Z,65.12
2023-02-03T10:46:30.455Z,64.61
2023-02-03T10:49:16.451Z,64.95
2023-02-03T10:52:04.830Z,64.99
2023-02-03T10:54:47.973Z,65.20
2023-02-03T10:57:31.361Z,64.98
2023-02-03T11:00:24.200Z,64.99
2023-02-03T11:03:09.607Z,65.56
2023-02-03T11:06:08.622Z,66.04
2023-02-03T11:08:52.816Z,65.99
2023-02-03T11:11:37.339Z,66.03
2023-02-03T11:14:19.995Z,65.94
2023-02-03T11:17:08.383Z,65.80
2023-02-03T11:19:53.751Z,65.88
2023-02-03T11:22:40.101Z,66.16
2023-02-03T11:25:29.823Z,66.76
2023-02-03T11:28:14.127Z,66.72
2023-02-03T11:30:59.038Z,66.66
2023-02-03T11:33:41.897Z,66.49
2023-02-03T11:36:28.477Z,66.80
2023-02-03T11:39:20.524Z,66.29
2023-02-03T11:42:03.680Z,66.17
2023-02-03T11:44:46.591Z,66.13
2023-02-03T11:47:29.416Z,66.42
2023-02-03T11:50:25.984Z,66.34
2023-02-03T11:53:24.229Z,67.04
2023-02-03T11:56:21.249Z,66.60
2023-02-03T11:59:39.749Z,66.42
2023-02-03T12:02:54.997Z,66.70
2023-02-03T12:05:57.776Z,66.51
2023-02-03T12:08:58.391Z,66.14
2023-02-03T12:12:06.810Z,66.11
2023-02-03T12:15:00.674Z,66.07
2023-02-03T12:17:56.116Z,66.27
2023-02-03T12:20:49.159Z,66.08
2023-02-03T12:23:42.271Z,66.63
2023-02-03T12:26:27.063Z,66.90
2023-02-03T12:29:14.447Z,66.69
2023-02-03T12:32:06.653Z,66.67
2023-02-03T12:34:54.926Z,66.43
2023-02-03T12:37:47.302Z,66.90
2023-02-03T12:40:37.071Z,66.43
2023-02-03T12:43:26.609Z,66.62
2023-02-03T12:46:15.840Z,66.82
2023-02-03T12:49:04.302Z,66.42
2023-02-03T12:51:51.531Z,66.64
2023-02-03T12:54:45.472Z,66.57
2023-02-03T12:57:31.769Z,66.76
2023-02-03T13:00:28.968Z,66.36
2023-02-03T13:03:26.010Z,65.96
2023-02-03T13:06:16.096Z,66.76
2023-02-03T13:09:03.873Z,66.67
2023-02-03T13:11:55.274Z,66.71
2023-02-03T13:14:43.928Z,66.60
2023-02-03T13:17:29.792Z,66.56
2023-02-03T13:20:20.467Z,66.50
2023-02-03T13:23:07.096Z,67.33
2023-02-03T13:26:06.554Z,66.99
2023-02-03T13:29:19.137Z,67.43
2023-02-03T13:32:16.834Z,66.98
2023-02-03T13:35:32.214Z,67.31
2023-02-03T13:38:29.301Z,66.56
2023-02-03T13:41:20.979Z,67.00
2023-02-03T13:44:05.225Z,67.70
2023-02-03T13:46:50.786Z,66.95
2023-02-03T13:49:36.133Z,66.47
2023-02-03T13:52:37.504Z,66.97
2023-02-03T13:55:31.892Z,66.57
2023-02-03T13:58:22.875Z,66.91
2023-02-03T14:01:28.511Z,67.07
2023-02-03T14:04:52.931Z,66.79
2023-02-03T14:07:40.686Z,66.86
2023-02-03T14:10:24.898Z,67.28
2023-02-03T14:13:21.329Z,66.85
2023-02-03T14:16:24.558Z,66.49
2023-02-03T14:19:10.616Z,67.17
2023-02-03T14:21:56.159Z,66.83
2023-02-03T14:24:44.328Z,66.76
2023-02-03T14:27:30.092Z,67.05
2023-02-03T14:30:16.726Z,67.75
2023-02-03T14:33:01.647Z,67.43
2023-02-03T14:35:44.614Z,67.41
2023-02-03T14:38:33.498Z,67.04
2023-02-03T14:41:22.693Z,67.03
2023-02-03T14:44:11.647Z,66.68
2023-02-03T14:47:08.758Z,66.77
2023-02-03T14:50:05.336Z,66.77
2023-02-03T14:53:09.141Z,66.34
2023-02-03T14:56:03.202Z,66.75
2023-02-03T14:58:51.450Z,66.86
2023-02-03T15:02:09.647Z,67.07
2023-02-03T15:05:13.281Z,66.90
2023-02-03T15:07:56.198Z,66.44
2023-02-03T15:10:43.465Z,67.06
2023-02-03T15:13:27.322Z,66.66
2023-02-03T15:16:19.560Z,66.24
2023-02-03T15:19:08.909Z,66.25
2023-02-03T15:21:51.846Z,66.23
2023-02-03T15:24:37.066Z,66.58
2023-02-03T15:27:24.515Z,66.25
2023-02-03T15:30:18.092Z,66.88
2023-02-03T15:33:08.112Z,67.24
2023-02-03T15:35:54.750Z,66.90
2023-02-03T15:38:41.354Z,66.98
2023-02-03T15:41:25.936Z,66.76
2023-02-03T15:44:13.469Z,66.95
2023-02-03T15:46:58.050Z,67.02
2023-02-03T15:49:43.396Z,66.58
2023-02-03T15:52:28.058Z,66.40
2023-02-03T15:55:20.646Z,66.67
2023-02-03T15:58:04.738Z,66.53
2023-02-03T16:00:51.526Z,66.84
2023-02-03T16:03:41.270Z,66.94
2023-02-03T16:06:29.743Z,67.46
2023-02-03T16:09:29.133Z,67.17
2023-02-03T16:12:19.959Z,67.48
2023-02-03T16:15:03.290Z,67.46
2023-02-03T16:17:46.147Z,66.91
2023-02-03T16:20:29.480Z,67.98
2023-02-03T16:23:22.762Z,67.66
2023-02-03T16:26:08.033Z,67.15
2023-02-03T16:29:15.995Z,67.51
2023-02-03T16:32:16.769Z,66.94
2023-02-03T16:35:16.914Z,67.04
2023-02-03T16:38:23.843Z,66.87
2023-02-03T16:41:35.355Z,66.55
2023-02-03T16:44:35.954Z,66.75
2023-02-03T16:47:42.987Z,66.66
2023-02-03T16:50:43.594Z,66.60
2023-02-03T16:53:28.216Z,66.92
2023-02-03T16:56:13.553Z,66.69
2023-02-03T16:58:56.381Z,67.36
2023-02-03T17:01:39.225Z,67.27
2023-02-03T17:04:22.141Z,67.30
2023-02-03T17:07:05.205Z,67.34
2023-02-03T17:09:48.058Z,67.11
2023-02-03T17:12:33.575Z,67.08
2023-02-03T17:15:16.393Z,67.43
2023-02-03T17:17:59.612Z,67.00
2023-02-03T17:20:43.211Z,67.71
2023-02-03T17:23:26.022Z,67.83
2023-02-03T17:26:09.269Z,67.85
2023-02-03T17:28:53.477Z,67.90
2023-02-03T17:31:36.350Z,67.33
2023-02-03T17:34:19.401Z,67.64
2023-02-03T17:37:02.231Z,67.31
2023-02-03T17:54:48.196Z,68.14
2023-02-03T17:57:32.356Z,67.33
2023-02-03T18:00:16.808Z,67.37
2023-02-03T18:03:00.959Z,67.00
2023-02-03T18:05:51.112Z,67.02
2023-02-03T18:08:33.974Z,67.66
2023-02-03T18:11:18.008Z,67.89
2023-02-03T18:14:01.610Z,67.84
2023-02-03T18:16:44.979Z,68.04
2023-02-03T18:19:29.179Z,68.02
2023-02-03T18:22:11.954Z,68.33
2023-02-03T18:24:55.596Z,68.16
2023-02-03T18:27:38.462Z,67.83
2023-02-03T18:30:21.838Z,67.69
2023-02-03T18:33:04.762Z,67.35
2023-02-03T18:35:48.941Z,67.36
2023-02-03T18:38:33.816Z,67.14
2023-02-03T18:41:18.888Z,68.60
2023-02-03T18:44:01.691Z,68.04
2023-02-03T18:46:44.530Z,67.37
2023-02-03T18:49:27.493Z,68.25
2023-02-03T18:52:11.956Z,68.50
2023-02-03T18:54:54.627Z,69.58
2023-02-03T18:57:37.581Z,68.32
2023-02-03T19:00:20.842Z,68.31
2023-02-03T19:03:03.804Z,68.24
2023-02-03T19:05:46.617Z,69.12
2023-02-03T19:08:30.797Z,69.13
2023-02-03T19:11:14.541Z,69.17
2023-02-03T19:13:57.368Z,68.12
2023-02-03T19:16:40.237Z,68.49
2023-02-03T19:19:23.062Z,67.66
2023-02-03T19:22:05.912Z,67.53
2023-02-03T19:24:50.058Z,67.51
2023-02-03T19:27:32.886Z,68.06
2023-02-03T19:30:15.754Z,67.82
2023-02-03T19:32:58.660Z,67.56
2023-02-03T19:35:42.618Z,67.24
2023-02-03T19:38:25.667Z,67.74
2023-02-03T19:41:11.799Z,67.97
2023-02-03T19:43:54.675Z,67.63
2023-02-03T19:46:38.498Z,67.95
2023-02-03T19:49:21.489Z,67.54
2023-02-03T19:52:05.341Z,67.68
2023-02-03T19:54:48.120Z,67.74
2023-02-03T19:57:32.531Z,67.82
2023-02-03T20:00:16.027Z,67.90
2023-02-03T20:02:59.729Z,67.70
2023-02-03T20:05:42.500Z,67.61
2023-02-03T20:08:25.329Z,67.22
2023-02-03T20:11:08.133Z,66.87
2023-02-03T20:13:52.901Z,66.77
2023-02-03T20:16:35.709Z,66.74
2023-02-03T20:19:19.576Z,66.75
2023-02-03T20:22:02.374Z,66.57
2023-02-03T20:24:45.293Z,66.48
2023-02-03T20:27:28.116Z,67.00
2023-02-03T20:30:13.956Z,66.85
2023-02-03T20:32:56.774Z,67.10
2023-02-03T20:35:39.666Z,66.81
2023-02-03T20:38:22.485Z,66.95
2023-02-03T20:41:09.775Z,67.39
2023-02-03T20:43:52.575Z,66.85
2023-02-03T20:46:36.772Z,67.02
2023-02-03T20:49:19.870Z,66.44
2023-02-03T20:52:02.645Z,66.58
2023-02-03T20:54:46.192Z,66.71
2023-02-03T20:57:28.991Z,66.86
2023-02-03T21:00:16.581Z,66.54
2023-02-03T21:03:18.749Z,66.46
2023-02-03T21:06:01.558Z,66.81
2023-02-03T21:08:45.446Z,66.03
2023-02-03T21:11:30.537Z,66.01
2023-02-03T21:14:20.678Z,66.12
2023-02-03T21:17:03.495Z,66.29
2023-02-03T21:19:48.014Z,66.61
2023-02-03T21:22:33.233Z,66.02
2023-02-03T21:25:27.312Z,65.76
2023-02-03T21:28:24.569Z,65.64
2023-02-03T21:31:16.181Z,66.16
2023-02-03T21:34:00.548Z,66.54
2023-02-03T21:36:44.672Z,65.82
2023-02-03T21:39:30.121Z,66.04
2023-02-03T21:42:46.299Z,65.71
2023-02-03T21:45:42.051Z,66.06
2023-02-03T21:48:32.075Z,65.82
2023-02-03T21:51:17.751Z,65.71
2023-02-03T21:54:03.393Z,65.59
2023-02-03T21:56:46.391Z,65.31
2023-02-03T21:59:38.521Z,65.34
2023-02-03T22:02:45.241Z,65.10
2023-02-03T22:05:28.068Z,65.10
2023-02-03T22:08:18.232Z,64.95
2023-02-03T22:11:02.377Z,64.69
2023-02-03T22:13:45.575Z,64.70
2023-02-03T22:16:29.260Z,65.20
2023-02-03T22:19:12.310Z,65.08
2023-02-03T22:21:55.190Z,64.45
2023-02-03T22:24:38.087Z,64.32
2023-02-03T22:27:25.092Z,64.32
2023-02-03T22:30:09.223Z,64.10
2023-02-03T22:32:52.018Z,64.37
2023-02-03T22:35:34.804Z,64.51
2023-02-03T22:38:17.820Z,64.34
2023-02-03T22:41:00.757Z,64.18
2023-02-03T22:43:44.944Z,64.79
2023-02-03T22:46:27.838Z,64.70
2023-02-03T22:49:10.702Z,64.28
2023-02-03T22:51:53.461Z,64.70
2023-02-03T22:54:36.853Z,64.32
2023-02-03T22:57:19.679Z,64.46
2023-02-03T23:00:04.263Z,64.46
2023-02-03T23:02:48.474Z,64.57
2023-02-03T23:05:31.659Z,64.05
2023-02-03T23:08:14.586Z,64.37
2023-02-03T23:10:57.400Z,63.94
2023-02-03T23:13:40.213Z,63.42
2023-02-03T23:16:24.409Z,64.63
2023-02-03T23:19:07.252Z,64.31
2023-02-03T23:21:50.017Z,64.54
2023-02-03T23:24:32.808Z,64.42
2023-02-03T23:27:15.588Z,64.30
2023-02-03T23:29:58.445Z,64.11
2023-02-03T23:32:42.715Z,63.66
2023-02-03T23:35:43.321Z,63.90
2023-02-03T23:38:26.170Z,63.89
2023-02-03T23:41:08.960Z,64.35
2023-02-03T23:43:51.910Z,63.80
2023-02-03T23:46:34.809Z,63.90
2023-02-03T23:49:18.970Z,63.39
2023-02-03T23:52:01.771Z,63.75
2023-02-03T23:54:44.569Z,63.70
2023-02-03T23:57:27.375Z,63.73
